Time;durP1;ratioP1;P1;durP2;ratioP2;P2;SDS_P1;SDS_P2;PMS_P1;PMS_P2;Temp;Humidity;BMP_temperature;BMP_pressure;BME280_temperature;BME280_humidity;BME280_pressure;Samples;Min_cycle;Max_cycle;Signal;HPM_P1;HPM_P2
2022/06/20 00:00:11;;;;;;;5.40;4.90;;;;;;;;;;759302;180;918781;-73
2022/06/20 00:02:36;;;;;;;7.57;5.50;;;;;;;;;;767719;180;917521;-72
2022/06/20 00:05:02;;;;;;;6.20;5.10;;;;;;;;;;771550;180;918610;-72
2022/06/20 00:07:28;;;;;;;7.27;5.40;;;;;;;;;;764217;180;895977;-72
2022/06/20 00:09:54;;;;;;;8.67;4.97;;;;;;;;;;762570;181;919262;-72
2022/06/20 00:12:20;;;;;;;9.93;5.80;;;;;;;;;;771720;180;918744;-73
2022/06/20 00:14:46;;;;;;;6.13;5.03;;;;;;;;;;757475;181;622666;-73
2022/06/20 00:17:12;;;;;;;6.50;5.73;;;;;;;;;;762770;181;918669;-73
2022/06/20 00:19:37;;;;;;;10.20;5.37;;;;;;;;;;766575;180;919355;-72
2022/06/20 00:22:03;;;;;;;7.50;5.30;;;;;;;;;;773765;180;918936;-72
2022/06/20 00:24:30;;;;;;;12.00;5.00;;;;;;;;;;767145;181;918675;-73
2022/06/20 00:26:55;;;;;;;7.30;5.40;;;;;;;;;;737594;185;918966;-73
2022/06/20 00:29:21;;;;;;;5.97;5.37;;;;;;;;;;739645;188;815803;-71
2022/06/20 00:31:47;;;;;;;7.67;5.90;;;;;;;;;;745221;185;919344;-72
2022/06/20 00:34:13;;;;;;;7.63;5.57;;;;;;;;;;734418;188;918847;-74
2022/06/20 00:36:38;;;;;;;7.20;5.17;;;;;;;;;;772590;181;919076;-73
2022/06/20 00:39:04;;;;;;;8.23;5.83;;;;;;;;;;765665;181;919333;-72
2022/06/20 00:41:30;;;;;;;7.27;5.60;;;;;;;;;;760818;181;919045;-72
2022/06/20 00:43:56;;;;;;;9.50;5.47;;;;;;;;;;762993;181;917413;-72
2022/06/20 00:46:24;;;;;;;6.00;5.40;;;;;;;;;;768532;181;918679;-73
2022/06/20 00:48:52;;;;;;;8.20;5.17;;;;;;;;;;761963;181;917085;-71
2022/06/20 00:51:33;;;;;;;7.40;6.07;;;;;;;;;;761276;181;919088;-73
2022/06/20 00:54:01;;;;;;;5.20;4.63;;;;;;;;;;756001;181;1021157;-71
2022/06/20 00:56:29;;;;;;;7.57;5.30;;;;;;;;;;767823;180;918476;-72
2022/06/20 00:58:55;;;;;;;6.03;4.50;;;;;;;;;;762414;181;1019858;-71
2022/06/20 01:01:21;;;;;;;9.97;5.53;;;;;;;;;;763662;181;932572;-72
2022/06/20 01:03:48;;;;;;;6.67;5.40;;;;;;;;;;730743;188;918817;-71
2022/06/20 01:06:14;;;;;;;7.60;5.70;;;;;;;;;;760537;181;919508;-72
2022/06/20 01:08:40;;;;;;;6.17;5.37;;;;;;;;;;731241;189;919376;-71
2022/06/20 01:11:06;;;;;;;6.73;5.63;;;;;;;;;;735917;187;918802;-72
2022/06/20 01:13:32;;;;;;;7.67;5.70;;;;;;;;;;767163;180;918170;-72
2022/06/20 01:15:59;;;;;;;7.07;5.50;;;;;;;;;;767512;180;927407;-71
2022/06/20 01:18:24;;;;;;;8.67;5.50;;;;;;;;;;761424;181;919317;-71
2022/06/20 01:20:50;;;;;;;5.80;5.10;;;;;;;;;;768789;181;918725;-71
2022/06/20 01:23:16;;;;;;;6.33;5.43;;;;;;;;;;767041;180;919872;-71
2022/06/20 01:25:45;;;;;;;15.27;5.73;;;;;;;;;;767050;180;918932;-71
2022/06/20 01:28:11;;;;;;;8.87;5.40;;;;;;;;;;761601;181;918946;-72
2022/06/20 01:30:37;;;;;;;6.17;5.53;;;;;;;;;;769786;181;918768;-71
2022/06/20 01:33:02;;;;;;;6.23;5.33;;;;;;;;;;770942;180;918669;-72
2022/06/20 01:38:00;;;;;;;6.50;5.50;;;;;;;;;;762358;180;918745;-71
2022/06/20 01:40:26;;;;;;;6.47;5.60;;;;;;;;;;765579;181;917945;-72
2022/06/20 01:42:51;;;;;;;7.57;6.03;;;;;;;;;;766456;180;920297;-72
2022/06/20 01:47:49;;;;;;;7.70;5.70;;;;;;;;;;774447;181;918267;-72
2022/06/20 01:50:15;;;;;;;8.60;6.00;;;;;;;;;;768349;181;918891;-71
2022/06/20 01:52:41;;;;;;;8.10;6.43;;;;;;;;;;765632;181;919284;-72
2022/06/20 01:55:09;;;;;;;12.68;6.28;;;;;;;;;;763670;181;921829;-71
2022/06/20 01:57:35;;;;;;;6.13;5.37;;;;;;;;;;765688;182;919684;-71
2022/06/20 02:00:11;;;;;;;8.67;5.87;;;;;;;;;;772665;181;625327;-72
2022/06/20 02:02:37;;;;;;;8.60;5.40;;;;;;;;;;764551;181;624172;-72
2022/06/20 02:05:03;;;;;;;7.53;5.77;;;;;;;;;;767531;181;617019;-72
2022/06/20 02:07:29;;;;;;;11.00;5.30;;;;;;;;;;764600;180;917867;-72
2022/06/20 02:09:55;;;;;;;7.50;6.20;;;;;;;;;;763217;180;918836;-72
2022/06/20 02:12:21;;;;;;;7.13;5.63;;;;;;;;;;775554;180;636239;-72
2022/06/20 02:14:47;;;;;;;18.33;6.37;;;;;;;;;;772822;181;625176;-72
2022/06/20 02:17:13;;;;;;;8.40;5.80;;;;;;;;;;738974;186;915048;-71
2022/06/20 02:19:38;;;;;;;7.53;5.50;;;;;;;;;;759770;181;915711;-71
2022/06/20 02:22:04;;;;;;;13.98;5.95;;;;;;;;;;771410;181;914450;-71
2022/06/20 02:24:30;;;;;;;10.43;6.60;;;;;;;;;;769150;180;919361;-72
2022/06/20 02:27:01;;;;;;;10.60;5.30;;;;;;;;;;771006;180;919398;-72
2022/06/20 02:29:22;;;;;;;7.50;5.50;;;;;;;;;;770384;180;919548;-71
2022/06/20 02:31:49;;;;;;;6.13;5.47;;;;;;;;;;766110;181;623883;-72
2022/06/20 02:34:15;;;;;;;9.30;5.00;;;;;;;;;;774534;180;630190;-72
2022/06/20 02:36:40;;;;;;;9.80;5.90;;;;;;;;;;768685;180;626378;-72
2022/06/20 02:39:06;;;;;;;5.73;5.10;;;;;;;;;;780338;180;630385;-73
2022/06/20 02:41:32;;;;;;;8.90;5.17;;;;;;;;;;772073;180;639272;-72
2022/06/20 02:43:58;;;;;;;7.07;6.20;;;;;;;;;;771052;180;917434;-72
2022/06/20 02:46:25;;;;;;;7.90;5.47;;;;;;;;;;770670;180;636937;-73
2022/06/20 02:48:50;;;;;;;10.97;6.30;;;;;;;;;;767987;180;633871;-72
2022/06/20 02:51:16;;;;;;;9.10;5.33;;;;;;;;;;769368;181;631540;-74
2022/06/20 02:53:43;;;;;;;11.40;5.27;;;;;;;;;;773209;181;629294;-72
2022/06/20 02:56:09;;;;;;;8.10;6.13;;;;;;;;;;766119;180;912027;-72
2022/06/20 02:58:35;;;;;;;7.20;5.50;;;;;;;;;;769202;180;912494;-72
2022/06/20 03:01:02;;;;;;;6.30;5.70;;;;;;;;;;763875;181;917138;-74
2022/06/20 03:03:33;;;;;;;6.90;6.27;;;;;;;;;;769911;181;915521;-73
2022/06/20 03:05:59;;;;;;;16.53;6.40;;;;;;;;;;770780;180;918505;-74
2022/06/20 03:08:25;;;;;;;14.10;5.90;;;;;;;;;;765575;180;919269;-72
2022/06/20 03:10:51;;;;;;;7.40;5.57;;;;;;;;;;756806;181;918207;-71
2022/06/20 03:13:17;;;;;;;6.90;5.63;;;;;;;;;;774716;180;918716;-72
2022/06/20 03:15:43;;;;;;;7.60;6.30;;;;;;;;;;767012;180;919518;-73
2022/06/20 03:18:08;;;;;;;7.57;6.57;;;;;;;;;;764423;180;922532;-73
2022/06/20 03:20:34;;;;;;;6.90;6.20;;;;;;;;;;771179;180;918198;-72
2022/06/20 03:23:09;;;;;;;13.40;6.97;;;;;;;;;;762554;180;918166;-73
2022/06/20 03:25:35;;;;;;;10.10;6.63;;;;;;;;;;761120;180;917330;-73
2022/06/20 03:28:01;;;;;;;7.70;6.73;;;;;;;;;;762759;181;918989;-73
2022/06/20 03:30:30;;;;;;;16.07;7.57;;;;;;;;;;771296;180;917110;-73
2022/06/20 03:32:56;;;;;;;7.73;6.93;;;;;;;;;;767484;180;1030855;-73
2022/06/20 03:35:22;;;;;;;11.17;7.17;;;;;;;;;;766169;179;918942;-73
2022/06/20 03:37:48;;;;;;;9.07;7.17;;;;;;;;;;771091;180;919612;-74
2022/06/20 03:40:14;;;;;;;14.00;7.33;;;;;;;;;;762621;180;919034;-74
2022/06/20 03:42:39;;;;;;;9.23;8.20;;;;;;;;;;766384;181;972303;-74
2022/06/20 03:45:06;;;;;;;9.07;7.13;;;;;;;;;;762741;181;919251;-73
2022/06/20 03:47:32;;;;;;;8.07;7.27;;;;;;;;;;764551;180;919320;-74
2022/06/20 03:49:59;;;;;;;8.73;7.53;;;;;;;;;;761822;180;917825;-72
2022/06/20 03:52:25;;;;;;;13.10;7.77;;;;;;;;;;763394;180;918550;-72
2022/06/20 03:54:52;;;;;;;9.23;6.90;;;;;;;;;;768455;181;1026696;-72
2022/06/20 03:57:18;;;;;;;14.63;8.10;;;;;;;;;;759104;181;918709;-73
2022/06/20 03:59:43;;;;;;;11.40;7.07;;;;;;;;;;733525;187;917393;-74
2022/06/20 04:02:10;;;;;;;12.00;9.37;;;;;;;;;;766060;181;918418;-73
2022/06/20 04:04:36;;;;;;;9.13;7.90;;;;;;;;;;764663;181;917324;-73
2022/06/20 04:07:04;;;;;;;14.80;7.73;;;;;;;;;;766076;180;615954;-74
2022/06/20 04:12:05;;;;;;;8.88;7.22;;;;;;;;;;765098;181;934842;-73
2022/06/20 04:14:33;;;;;;;9.37;8.40;;;;;;;;;;748150;181;918292;-72
2022/06/20 04:16:58;;;;;;;12.83;8.83;;;;;;;;;;736793;188;918845;-74
2022/06/20 04:19:33;;;;;;;10.53;9.27;;;;;;;;;;770406;181;639127;-75
2022/06/20 04:22:00;;;;;;;12.37;9.20;;;;;;;;;;764364;181;918850;-74
2022/06/20 04:24:30;;;;;;;12.97;9.57;;;;;;;;;;763055;181;917923;-73
2022/06/20 04:26:56;;;;;;;12.20;9.50;;;;;;;;;;767423;181;918727;-73
2022/06/20 04:29:23;;;;;;;12.70;9.50;;;;;;;;;;768528;181;918725;-73
2022/06/20 04:31:50;;;;;;;10.83;9.53;;;;;;;;;;744824;186;1020654;-74
2022/06/20 04:34:17;;;;;;;11.50;9.50;;;;;;;;;;765402;180;617945;-75
2022/06/20 04:36:43;;;;;;;13.13;10.73;;;;;;;;;;766998;181;637586;-76
2022/06/20 04:39:14;;;;;;;12.70;9.90;;;;;;;;;;771235;181;639427;-75
2022/06/20 04:41:41;;;;;;;16.67;12.67;;;;;;;;;;772384;180;819906;-75
2022/06/20 04:44:24;;;;;;;16.37;11.73;;;;;;;;;;739635;188;628843;-74
2022/06/20 04:46:51;;;;;;;20.57;15.00;;;;;;;;;;755489;180;614501;-76
2022/06/20 04:49:17;;;;;;;22.30;14.00;;;;;;;;;;739969;187;634013;-76
2022/06/20 04:51:45;;;;;;;23.80;18.17;;;;;;;;;;773623;181;616670;-75
2022/06/20 04:54:12;;;;;;;19.10;14.13;;;;;;;;;;748843;185;624793;-76
2022/06/20 04:56:34;;;;;;;15.70;11.90;;;;;;;;;;770021;181;643201;-75
2022/06/20 04:59:00;;;;;;;19.23;14.40;;;;;;;;;;772999;181;656762;-75
2022/06/20 05:01:26;;;;;;;18.10;11.23;;;;;;;;;;767535;180;647888;-76
2022/06/20 05:03:56;;;;;;;108.47;45.83;;;;;;;;;;765089;181;634897;-75
2022/06/20 05:06:19;;;;;;;56.63;29.50;;;;;;;;;;764887;181;633534;-75
2022/06/20 05:08:45;;;;;;;41.93;23.07;;;;;;;;;;744433;187;1106482;-77
2022/06/20 05:11:12;;;;;;;28.07;15.47;;;;;;;;;;774462;181;935090;-77
2022/06/20 05:13:41;;;;;;;14.73;9.55;;;;;;;;;;774294;181;917894;-79
2022/06/20 05:16:08;;;;;;;13.87;11.17;;;;;;;;;;771509;179;815303;-77
2022/06/20 05:18:34;;;;;;;13.10;7.37;;;;;;;;;;762724;180;816780;-79
2022/06/20 05:21:00;;;;;;;16.93;9.00;;;;;;;;;;741952;187;638935;-79
2022/06/20 05:23:35;;;;;;;10.83;8.30;;;;;;;;;;766559;181;916076;-78
2022/06/20 05:26:01;;;;;;;10.43;7.70;;;;;;;;;;767412;180;622357;-79
2022/06/20 05:28:27;;;;;;;12.03;8.40;;;;;;;;;;738818;187;622003;-81
2022/06/20 05:30:53;;;;;;;13.17;8.63;;;;;;;;;;773013;180;907785;-80
2022/06/20 05:33:21;;;;;;;6.50;4.33;;;;;;;;;;768804;180;812761;-80
2022/06/20 05:35:47;;;;;;;9.47;6.70;;;;;;;;;;767260;181;812738;-80
2022/06/20 05:38:13;;;;;;;10.60;5.90;;;;;;;;;;736679;186;628383;-80
2022/06/20 05:40:40;;;;;;;8.57;5.40;;;;;;;;;;745846;186;802392;-82
2022/06/20 05:43:06;;;;;;;6.50;3.73;;;;;;;;;;765791;181;811878;-80
2022/06/20 05:45:32;;;;;;;9.03;4.33;;;;;;;;;;754720;184;628494;-82
2022/06/20 05:47:58;;;;;;;4.50;4.10;;;;;;;;;;739100;188;709158;-79
2022/06/20 05:50:24;;;;;;;5.20;4.40;;;;;;;;;;768781;181;635142;-81
2022/06/20 05:52:50;;;;;;;5.50;3.87;;;;;;;;;;769308;181;815945;-80
2022/06/20 05:55:16;;;;;;;5.30;3.77;;;;;;;;;;769972;181;928374;-81
2022/06/20 05:57:42;;;;;;;6.47;3.77;;;;;;;;;;774355;178;918325;-79
2022/06/20 06:00:12;;;;;;;6.37;3.67;;;;;;;;;;777519;179;809256;-81
2022/06/20 06:02:37;;;;;;;6.27;3.33;;;;;;;;;;736348;185;683138;-79
2022/06/20 06:05:05;;;;;;;4.07;3.30;;;;;;;;;;739030;188;634258;-80
2022/06/20 06:07:32;;;;;;;6.40;3.83;;;;;;;;;;742302;186;1021451;-80
2022/06/20 06:09:59;;;;;;;5.37;3.77;;;;;;;;;;762066;181;921154;-81
2022/06/20 06:12:25;;;;;;;3.90;3.00;;;;;;;;;;763665;181;916971;-80
2022/06/20 06:14:52;;;;;;;6.65;3.72;;;;;;;;;;764051;180;917716;-80
2022/06/20 06:17:19;;;;;;;4.47;3.50;;;;;;;;;;766902;181;918500;-79
2022/06/20 06:19:47;;;;;;;5.90;4.00;;;;;;;;;;758951;181;906194;-79
2022/06/20 06:22:12;;;;;;;8.07;3.50;;;;;;;;;;764070;181;918047;-80
2022/06/20 06:24:38;;;;;;;4.53;3.30;;;;;;;;;;756683;180;859585;-79
2022/06/20 06:27:04;;;;;;;6.20;3.60;;;;;;;;;;757816;181;918191;-80
2022/06/20 06:29:33;;;;;;;5.63;4.07;;;;;;;;;;735226;188;918825;-81
2022/06/20 06:31:59;;;;;;;3.97;3.17;;;;;;;;;;734302;188;914973;-79
2022/06/20 06:34:26;;;;;;;4.97;3.10;;;;;;;;;;741628;188;815687;-78
2022/06/20 06:36:53;;;;;;;5.20;3.00;;;;;;;;;;761599;181;918844;-81
2022/06/20 06:39:20;;;;;;;6.90;3.63;;;;;;;;;;761174;181;919415;-80
2022/06/20 06:41:46;;;;;;;4.10;3.33;;;;;;;;;;765088;181;816565;-80
2022/06/20 06:44:22;;;;;;;5.70;3.60;;;;;;;;;;779362;177;1010718;-81
2022/06/20 06:46:48;;;;;;;4.80;3.80;;;;;;;;;;772708;181;627108;-79
2022/06/20 06:49:29;;;;;;;5.90;3.77;;;;;;;;;;770784;181;634917;-80
2022/06/20 06:52:12;;;;;;;4.15;3.28;;;;;;;;;;768269;181;1019205;-78
2022/06/20 06:54:53;;;;;;;5.37;3.70;;;;;;;;;;757426;184;816024;-79
2022/06/20 06:57:33;;;;;;;5.37;3.37;;;;;;;;;;773998;180;918094;-80
2022/06/20 07:00:18;;;;;;;5.50;3.50;;;;;;;;;;771486;181;919558;-80
2022/06/20 07:02:45;;;;;;;4.50;3.40;;;;;;;;;;755161;181;917723;-81
2022/06/20 07:05:17;;;;;;;6.07;3.22;;;;;;;;;;767959;181;921919;-79
2022/06/20 07:07:44;;;;;;;4.20;3.13;;;;;;;;;;768659;180;917613;-81
2022/06/20 07:10:10;;;;;;;5.70;3.50;;;;;;;;;;757758;182;926608;-79
2022/06/20 07:12:36;;;;;;;5.90;3.50;;;;;;;;;;768325;180;918452;-80
2022/06/20 07:15:16;;;;;;;4.63;3.17;;;;;;;;;;764540;181;917062;-81
2022/06/20 07:17:47;;;;;;;6.43;3.70;;;;;;;;;;766649;181;812635;-80
2022/06/20 07:20:13;;;;;;;6.00;3.77;;;;;;;;;;755079;184;817838;-79
2022/06/20 07:22:39;;;;;;;6.40;3.83;;;;;;;;;;759949;180;914588;-77
2022/06/20 07:25:05;;;;;;;5.37;3.83;;;;;;;;;;768039;181;812397;-79
2022/06/20 07:27:36;;;;;;;7.33;3.50;;;;;;;;;;775609;181;916324;-78
2022/06/20 07:30:09;;;;;;;4.13;3.73;;;;;;;;;;769794;181;816231;-78
2022/06/20 07:32:35;;;;;;;3.73;3.33;;;;;;;;;;763410;180;815495;-78
2022/06/20 07:35:01;;;;;;;13.00;3.83;;;;;;;;;;763273;180;913404;-77
2022/06/20 07:37:30;;;;;;;4.70;3.70;;;;;;;;;;772565;180;810037;-79
2022/06/20 07:39:57;;;;;;;22.17;4.30;;;;;;;;;;768955;181;879003;-81
2022/06/20 07:42:24;;;;;;;5.23;3.63;;;;;;;;;;768049;181;918189;-79
2022/06/20 07:44:48;;;;;;;7.33;4.17;;;;;;;;;;767756;181;906206;-78
2022/06/20 07:47:14;;;;;;;4.37;3.57;;;;;;;;;;755680;181;918693;-79
2022/06/20 07:49:43;;;;;;;7.80;3.30;;;;;;;;;;761712;180;894698;-79
2022/06/20 07:52:09;;;;;;;7.50;3.47;;;;;;;;;;767616;181;919170;-78
2022/06/20 07:54:35;;;;;;;6.10;3.60;;;;;;;;;;777849;180;816029;-77
2022/06/20 07:57:01;;;;;;;6.97;3.87;;;;;;;;;;765861;181;918287;-77
2022/06/20 07:59:27;;;;;;;8.30;4.70;;;;;;;;;;763301;181;918365;-76
2022/06/20 08:01:55;;;;;;;10.33;3.83;;;;;;;;;;778725;180;899119;-76
2022/06/20 08:04:23;;;;;;;8.00;4.00;;;;;;;;;;770255;181;918906;-75
2022/06/20 08:06:49;;;;;;;5.70;4.00;;;;;;;;;;761180;181;919594;-79
2022/06/20 08:09:18;;;;;;;5.00;3.87;;;;;;;;;;741478;186;634937;-76
2022/06/20 08:11:45;;;;;;;6.77;3.97;;;;;;;;;;742356;186;917850;-75
2022/06/20 08:14:14;;;;;;;5.93;4.40;;;;;;;;;;738315;186;820534;-75
2022/06/20 08:16:40;;;;;;;5.00;4.30;;;;;;;;;;741565;186;877703;-75
2022/06/20 08:19:06;;;;;;;9.73;4.50;;;;;;;;;;746270;187;812856;-75
2022/06/20 08:21:33;;;;;;;6.57;3.60;;;;;;;;;;753568;185;814086;-76
2022/06/20 08:24:04;;;;;;;4.97;3.90;;;;;;;;;;746378;186;920210;-74
2022/06/20 08:26:29;;;;;;;4.37;3.37;;;;;;;;;;746719;186;911863;-72
2022/06/20 08:28:55;;;;;;;8.50;4.80;;;;;;;;;;750776;186;873274;-77
2022/06/20 08:31:22;;;;;;;7.07;4.20;;;;;;;;;;747089;186;916083;-75
2022/06/20 08:33:49;;;;;;;10.70;4.60;;;;;;;;;;762630;180;940775;-75
2022/06/20 08:36:14;;;;;;;5.67;4.20;;;;;;;;;;760875;180;908783;-74
2022/06/20 08:38:50;;;;;;;8.33;4.50;;;;;;;;;;762183;181;919051;-76
2022/06/20 08:41:22;;;;;;;7.77;5.03;;;;;;;;;;734732;188;919049;-76
2022/06/20 08:43:51;;;;;;;7.70;5.40;;;;;;;;;;771310;180;919300;-76
2022/06/20 08:46:19;;;;;;;8.93;4.10;;;;;;;;;;770676;181;916471;-75
2022/06/20 08:48:51;;;;;;;7.27;4.10;;;;;;;;;;775112;181;896979;-76
2022/06/20 08:51:23;;;;;;;8.17;4.30;;;;;;;;;;770295;181;915847;-75
2022/06/20 08:53:55;;;;;;;5.20;4.57;;;;;;;;;;772258;180;915152;-74
2022/06/20 08:56:22;;;;;;;6.13;4.67;;;;;;;;;;768298;180;915203;-75
2022/06/20 08:59:06;;;;;;;6.33;5.23;;;;;;;;;;759639;181;911325;-73
2022/06/20 09:01:37;;;;;;;6.77;4.83;;;;;;;;;;746036;184;915688;-75
2022/06/20 09:04:05;;;;;;;9.07;5.13;;;;;;;;;;764070;180;916452;-74
2022/06/20 09:06:32;;;;;;;7.43;5.10;;;;;;;;;;759724;181;917471;-74
2022/06/20 09:09:04;;;;;;;7.30;4.80;;;;;;;;;;766947;181;914694;-77
2022/06/20 09:11:45;;;;;;;6.03;4.70;;;;;;;;;;763239;181;911436;-75
2022/06/20 09:14:12;;;;;;;5.17;4.40;;;;;;;;;;764039;180;914217;-74
2022/06/20 09:16:39;;;;;;;7.13;4.90;;;;;;;;;;766517;181;917099;-75
2022/06/20 09:19:06;;;;;;;9.03;5.23;;;;;;;;;;726253;189;808630;-74
2022/06/20 09:21:36;;;;;;;7.90;5.30;;;;;;;;;;725422;189;911777;-79
2022/06/20 09:24:02;;;;;;;6.40;5.00;;;;;;;;;;733194;186;912761;-74
2022/06/20 09:26:29;;;;;;;10.90;4.60;;;;;;;;;;752462;185;810008;-73
2022/06/20 09:29:12;;;;;;;8.00;4.87;;;;;;;;;;763615;181;919043;-75
2022/06/20 09:31:40;;;;;;;5.17;4.20;;;;;;;;;;743624;181;918800;-74
2022/06/20 09:34:12;;;;;;;6.97;4.77;;;;;;;;;;767290;180;907961;-76
2022/06/20 09:36:53;;;;;;;5.50;4.07;;;;;;;;;;768154;180;919447;-73
2022/06/20 09:39:19;;;;;;;9.87;5.20;;;;;;;;;;750492;184;916947;-74
2022/06/20 09:41:56;;;;;;;11.17;4.77;;;;;;;;;;740965;188;918184;-75
2022/06/20 09:44:36;;;;;;;8.03;5.13;;;;;;;;;;761910;181;919813;-75
2022/06/20 09:47:04;;;;;;;5.50;5.00;;;;;;;;;;740357;187;925690;-73
2022/06/20 09:49:45;;;;;;;8.00;4.93;;;;;;;;;;731838;188;929347;-74
2022/06/20 09:52:17;;;;;;;5.30;4.50;;;;;;;;;;749079;183;919980;-73
2022/06/20 09:54:44;;;;;;;6.20;5.30;;;;;;;;;;766205;180;884626;-73
2022/06/20 09:57:28;;;;;;;7.17;4.70;;;;;;;;;;764428;181;914688;-72
2022/06/20 09:59:56;;;;;;;6.20;5.03;;;;;;;;;;731414;189;913115;-74
2022/06/20 10:02:25;;;;;;;7.37;5.70;;;;;;;;;;763370;180;912250;-71
2022/06/20 10:04:53;;;;;;;8.30;5.30;;;;;;;;;;763673;181;812630;-72
2022/06/20 10:07:21;;;;;;;7.40;5.33;;;;;;;;;;765658;181;813289;-71
2022/06/20 10:09:48;;;;;;;5.03;4.53;;;;;;;;;;769785;181;915748;-73
2022/06/20 10:12:17;;;;;;;12.13;5.30;;;;;;;;;;762520;181;915541;-74
2022/06/20 10:14:43;;;;;;;5.30;4.40;;;;;;;;;;760956;181;918929;-73
2022/06/20 10:17:20;;;;;;;8.50;5.70;;;;;;;;;;767484;181;919365;-74
2022/06/20 10:19:47;;;;;;;7.40;5.40;;;;;;;;;;768722;181;919343;-74
2022/06/20 10:22:34;;;;;;;9.83;5.53;;;;;;;;;;766808;180;919560;-74
2022/06/20 10:25:16;;;;;;;7.73;5.00;;;;;;;;;;751957;181;918927;-74
2022/06/20 10:27:43;;;;;;;8.00;5.13;;;;;;;;;;755176;181;911748;-72
2022/06/20 10:30:09;;;;;;;6.33;5.67;;;;;;;;;;763670;181;918568;-74
2022/06/20 10:32:36;;;;;;;6.93;4.80;;;;;;;;;;767571;180;874383;-75
2022/06/20 10:35:02;;;;;;;9.87;5.60;;;;;;;;;;767692;181;918213;-73
2022/06/20 10:37:30;;;;;;;16.60;6.03;;;;;;;;;;771543;181;919344;-72
2022/06/20 10:39:56;;;;;;;7.53;6.10;;;;;;;;;;774971;180;898737;-72
2022/06/20 10:42:34;;;;;;;7.40;5.33;;;;;;;;;;768833;180;919156;-70
2022/06/20 10:45:15;;;;;;;5.80;4.80;;;;;;;;;;782229;179;919151;-71
2022/06/20 10:47:42;;;;;;;10.60;6.13;;;;;;;;;;756879;184;915348;-73
2022/06/20 10:50:10;;;;;;;10.80;4.70;;;;;;;;;;764114;180;819264;-73
2022/06/20 10:52:42;;;;;;;6.87;4.60;;;;;;;;;;764022;180;918349;-73
2022/06/20 10:55:23;;;;;;;7.10;4.90;;;;;;;;;;767658;180;923890;-75
2022/06/20 10:57:49;;;;;;;6.53;5.83;;;;;;;;;;754773;184;917682;-75
2022/06/20 11:00:15;;;;;;;7.13;5.07;;;;;;;;;;748311;185;830712;-75
2022/06/20 11:02:42;;;;;;;8.10;5.20;;;;;;;;;;768565;180;1031819;-75
2022/06/20 11:05:26;;;;;;;6.60;5.27;;;;;;;;;;765149;180;983392;-74
2022/06/20 11:08:12;;;;;;;6.70;5.40;;;;;;;;;;750126;184;919763;-75
2022/06/20 11:10:38;;;;;;;6.73;4.93;;;;;;;;;;753442;181;918698;-74
2022/06/20 11:13:08;;;;;;;7.40;5.50;;;;;;;;;;769481;181;919687;-73
2022/06/20 11:15:34;;;;;;;6.90;6.20;;;;;;;;;;765154;181;918478;-75
2022/06/20 11:18:01;;;;;;;12.60;6.07;;;;;;;;;;758905;181;918458;-75
2022/06/20 11:20:28;;;;;;;11.23;5.43;;;;;;;;;;765822;180;919169;-74
2022/06/20 11:22:55;;;;;;;8.47;5.37;;;;;;;;;;768314;181;919570;-75
2022/06/20 11:25:23;;;;;;;8.33;5.23;;;;;;;;;;765308;180;918834;-76
2022/06/20 11:28:04;;;;;;;10.93;6.60;;;;;;;;;;772400;180;918438;-74
2022/06/20 11:30:39;;;;;;;6.53;5.80;;;;;;;;;;758254;181;923294;-76
2022/06/20 11:33:21;;;;;;;8.13;5.93;;;;;;;;;;760291;180;918400;-74
2022/06/20 11:35:49;;;;;;;6.77;6.07;;;;;;;;;;766021;181;919066;-73
2022/06/20 11:38:32;;;;;;;7.40;6.10;;;;;;;;;;764643;181;918530;-73
2022/06/20 11:40:58;;;;;;;13.20;6.67;;;;;;;;;;764153;184;917392;-78
2022/06/20 11:43:40;;;;;;;8.03;5.77;;;;;;;;;;758236;181;919564;-77
2022/06/20 11:46:12;;;;;;;7.20;5.80;;;;;;;;;;756105;183;636359;-73
2022/06/20 11:48:46;;;;;;;7.40;5.90;;;;;;;;;;769521;181;918202;-74
2022/06/20 11:51:13;;;;;;;8.30;5.70;;;;;;;;;;764473;180;918797;-75
2022/06/20 11:53:40;;;;;;;6.83;5.90;;;;;;;;;;765645;181;916805;-75
2022/06/20 11:56:16;;;;;;;8.23;6.17;;;;;;;;;;766860;181;815337;-76
2022/06/20 11:58:48;;;;;;;10.87;6.17;;;;;;;;;;775753;180;819188;-75
2022/06/20 12:01:14;;;;;;;6.57;5.87;;;;;;;;;;772833;179;902185;-78
2022/06/20 12:03:41;;;;;;;7.13;6.40;;;;;;;;;;761429;181;918449;-75
2022/06/20 12:06:07;;;;;;;7.60;5.90;;;;;;;;;;767266;181;919341;-78
2022/06/20 12:08:34;;;;;;;17.10;6.75;;;;;;;;;;769733;180;918891;-75
2022/06/20 12:11:02;;;;;;;9.13;7.57;;;;;;;;;;760623;181;918962;-77
2022/06/20 12:13:29;;;;;;;15.30;6.43;;;;;;;;;;776340;180;919044;-75
2022/06/20 12:15:58;;;;;;;9.53;6.23;;;;;;;;;;779997;180;919942;-76
2022/06/20 12:18:40;;;;;;;10.73;5.70;;;;;;;;;;757224;181;919440;-75
2022/06/20 12:23:39;;;;;;;8.13;6.30;;;;;;;;;;761690;180;918086;-74
2022/06/20 12:26:07;;;;;;;9.50;6.30;;;;;;;;;;766865;183;920218;-74
2022/06/20 12:28:34;;;;;;;7.03;5.67;;;;;;;;;;778583;180;816042;-75
2022/06/20 12:31:01;;;;;;;7.83;6.60;;;;;;;;;;772501;180;920827;-77
2022/06/20 12:33:26;;;;;;;7.00;5.73;;;;;;;;;;762981;180;921995;-76
2022/06/20 12:35:52;;;;;;;40.07;9.33;;;;;;;;;;760330;181;919218;-75
2022/06/20 12:38:22;;;;;;;15.17;4.63;;;;;;;;;;729609;188;915915;-76
2022/06/20 12:40:48;;;;;;;16.15;5.10;;;;;;;;;;763965;181;919362;-67
2022/06/20 12:43:14;;;;;;;7.13;4.63;;;;;;;;;;745189;186;920756;-66
2022/06/20 12:45:56;;;;;;;13.67;5.53;;;;;;;;;;755160;183;918992;-66
2022/06/20 12:48:24;;;;;;;10.87;6.10;;;;;;;;;;738450;184;917485;-70
2022/06/20 12:50:52;;;;;;;10.23;5.80;;;;;;;;;;754110;184;919002;-67
2022/06/20 12:53:24;;;;;;;10.47;5.43;;;;;;;;;;737292;188;919108;-65
2022/06/20 12:56:02;;;;;;;11.43;5.90;;;;;;;;;;766741;181;919471;-67
2022/06/20 12:58:29;;;;;;;11.50;6.27;;;;;;;;;;767832;181;918008;-70
2022/06/20 13:00:55;;;;;;;11.17;6.80;;;;;;;;;;751079;183;928936;-70
2022/06/20 13:03:22;;;;;;;15.67;6.40;;;;;;;;;;760330;180;919549;-69
2022/06/20 13:05:50;;;;;;;14.20;6.07;;;;;;;;;;766415;180;919315;-70
2022/06/20 13:08:31;;;;;;;12.10;5.70;;;;;;;;;;765646;180;918896;-72
2022/06/20 13:11:00;;;;;;;8.70;5.60;;;;;;;;;;749196;184;918009;-74
2022/06/20 13:13:30;;;;;;;11.53;6.43;;;;;;;;;;746911;186;918901;-69
2022/06/20 13:16:02;;;;;;;15.57;6.30;;;;;;;;;;766602;180;918333;-70
2022/06/20 13:18:30;;;;;;;12.10;6.57;;;;;;;;;;769174;180;919523;-70
2022/06/20 13:21:02;;;;;;;20.50;7.70;;;;;;;;;;775114;181;926210;-70
2022/06/20 13:23:29;;;;;;;26.87;8.40;;;;;;;;;;728575;189;918887;-64
2022/06/20 13:25:55;;;;;;;16.93;7.17;;;;;;;;;;751962;181;1196576;-67
2022/06/20 13:28:22;;;;;;;15.00;7.30;;;;;;;;;;755899;181;919272;-66
2022/06/20 13:30:48;;;;;;;13.93;6.73;;;;;;;;;;743970;188;919781;-66
2022/06/20 13:33:14;;;;;;;10.83;6.73;;;;;;;;;;742717;188;919102;-67
2022/06/20 13:35:42;;;;;;;11.57;7.33;;;;;;;;;;763606;180;919259;-67
2022/06/20 13:38:11;;;;;;;14.30;7.50;;;;;;;;;;765647;180;919655;-66
2022/06/20 13:40:42;;;;;;;14.40;7.10;;;;;;;;;;760363;180;918990;-67
2022/06/20 13:43:10;;;;;;;9.67;5.70;;;;;;;;;;765327;180;920782;-69
2022/06/20 13:45:41;;;;;;;8.13;5.90;;;;;;;;;;765794;180;919989;-70
2022/06/20 13:48:12;;;;;;;14.60;7.73;;;;;;;;;;762030;181;919300;-66
2022/06/20 13:50:40;;;;;;;12.15;6.93;;;;;;;;;;759887;181;916774;-66
2022/06/20 13:53:08;;;;;;;13.97;7.93;;;;;;;;;;745466;186;918280;-66
2022/06/20 13:55:36;;;;;;;18.67;7.23;;;;;;;;;;772606;180;626981;-67
2022/06/20 13:58:07;;;;;;;10.07;6.80;;;;;;;;;;773286;181;633952;-66
2022/06/20 14:00:33;;;;;;;11.80;6.83;;;;;;;;;;772549;181;632260;-66
2022/06/20 14:03:05;;;;;;;12.93;6.73;;;;;;;;;;770670;180;619481;-68
2022/06/20 14:05:31;;;;;;;11.70;7.07;;;;;;;;;;765533;181;624959;-68
2022/06/20 14:08:01;;;;;;;11.37;6.60;;;;;;;;;;739904;189;626362;-67
2022/06/20 14:10:28;;;;;;;15.07;7.53;;;;;;;;;;761273;181;918620;-66
2022/06/20 14:12:54;;;;;;;11.20;7.15;;;;;;;;;;760765;181;1123430;-67
2022/06/20 14:15:20;;;;;;;12.33;7.30;;;;;;;;;;771782;180;633496;-67
2022/06/20 14:17:55;;;;;;;14.47;8.20;;;;;;;;;;781438;178;629070;-68
2022/06/20 14:20:21;;;;;;;14.33;7.67;;;;;;;;;;776751;180;630183;-69
2022/06/20 14:22:47;;;;;;;15.53;6.77;;;;;;;;;;764429;179;623826;-69
2022/06/20 14:25:19;;;;;;;11.03;7.03;;;;;;;;;;764971;181;634981;-69
2022/06/20 14:27:45;;;;;;;14.73;8.00;;;;;;;;;;751431;186;642025;-71
2022/06/20 14:30:26;;;;;;;16.07;7.80;;;;;;;;;;749653;184;628087;-70
2022/06/20 14:32:55;;;;;;;14.83;7.47;;;;;;;;;;736244;188;1085587;-71
2022/06/20 14:35:31;;;;;;;14.07;8.20;;;;;;;;;;762969;181;624572;-72
2022/06/20 14:38:12;;;;;;;17.27;8.20;;;;;;;;;;764152;180;787558;-71
2022/06/20 14:40:38;;;;;;;10.47;7.23;;;;;;;;;;772807;181;633182;-71